Time;durP1;ratioP1;P1;durP2;ratioP2;P2;SDS_P1;SDS_P2;PMS_P1;PMS_P2;Temp;Humidity;BMP_temperature;BMP_pressure;BME280_temperature;BME280_humidity;BME280_pressure;Samples;Min_cycle;Max_cycle;Signal;HPM_P1;HPM_P2
2021/01/30 00:00:10;;;;;;;3.50;1.00;;;;;;;8.39;95.39;99028.62;620944;226;33126;-73
2021/01/30 00:02:38;;;;;;;2.80;1.00;;;;;;;8.37;96.32;99038.33;622451;225;32870;-73
2021/01/30 00:05:07;;;;;;;5.53;1.37;;;;;;;8.32;96.40;99031.83;629597;226;23731;-73
2021/01/30 00:07:35;;;;;;;2.23;1.00;;;;;;;8.28;96.86;99024.52;625660;228;24865;-73
2021/01/30 00:10:04;;;;;;;2.00;0.87;;;;;;;8.34;95.61;99016.16;625604;226;24913;-74
2021/01/30 00:12:32;;;;;;;3.12;1.10;;;;;;;8.31;96.17;99035.39;620516;225;32813;-73
2021/01/30 00:15:00;;;;;;;3.40;0.90;;;;;;;8.28;95.85;99029.22;619720;229;24801;-73
2021/01/30 00:17:28;;;;;;;3.77;0.90;;;;;;;8.34;95.30;99017.45;629534;225;25147;-73
2021/01/30 00:19:55;;;;;;;2.60;1.03;;;;;;;8.30;94.89;99026.46;627118;228;24811;-73
2021/01/30 00:22:23;;;;;;;3.03;0.90;;;;;;;8.32;94.29;99024.06;627278;228;24803;-72
2021/01/30 00:24:51;;;;;;;3.83;1.10;;;;;;;8.37;94.07;99024.89;620858;229;33048;-73
2021/01/30 00:27:19;;;;;;;4.13;1.13;;;;;;;8.30;94.54;99023.41;637506;221;23719;-72
2021/01/30 00:29:47;;;;;;;3.03;1.03;;;;;;;8.23;94.98;99035.37;641010;224;24797;-72
2021/01/30 00:32:15;;;;;;;3.40;1.20;;;;;;;8.22;95.05;99031.64;639602;224;24811;-72
2021/01/30 00:34:43;;;;;;;4.97;1.10;;;;;;;8.16;95.74;99038.25;638630;223;27974;-72
2021/01/30 00:37:11;;;;;;;2.53;1.10;;;;;;;8.21;94.87;99032.13;639246;220;25997;-72
2021/01/30 00:39:39;;;;;;;2.40;0.90;;;;;;;8.26;95.33;99036.34;633377;224;32678;-73
2021/01/30 00:42:07;;;;;;;2.10;1.00;;;;;;;8.24;95.54;99034.88;640334;223;24800;-73
2021/01/30 00:44:35;;;;;;;4.40;1.07;;;;;;;8.22;95.30;99034.23;640992;223;24805;-73
2021/01/30 00:47:03;;;;;;;3.20;1.20;;;;;;;8.25;95.12;99036.02;634221;221;43475;-73
2021/01/30 00:49:31;;;;;;;1.53;0.83;;;;;;;8.20;96.27;99043.46;641346;223;24814;-73
2021/01/30 00:51:58;;;;;;;5.53;0.93;;;;;;;8.19;96.76;99046.21;640019;223;24796;-73
2021/01/30 00:54:26;;;;;;;4.10;0.93;;;;;;;8.17;96.32;99042.48;639760;224;24787;-72
2021/01/30 00:56:54;;;;;;;4.60;1.20;;;;;;;8.17;97.08;99047.67;632183;225;24852;-72
2021/01/30 00:59:22;;;;;;;1.33;0.90;;;;;;;8.17;96.53;99046.38;628954;225;24753;-75
2021/01/30 01:01:50;;;;;;;3.17;0.97;;;;;;;8.22;95.58;99033.75;619896;228;32650;-74
2021/01/30 01:04:18;;;;;;;1.60;0.90;;;;;;;8.21;95.86;99037.80;627411;228;24819;-75
2021/01/30 01:06:46;;;;;;;3.17;1.20;;;;;;;8.17;95.43;99042.48;625903;224;24811;-75
2021/01/30 01:09:14;;;;;;;4.07;1.10;;;;;;;8.14;94.67;99042.78;626369;228;24825;-75
2021/01/30 01:11:42;;;;;;;2.77;1.10;;;;;;;8.11;94.46;99039.70;629528;226;28012;-74
2021/01/30 01:14:09;;;;;;;1.37;0.77;;;;;;;8.10;94.87;99048.45;637564;225;24830;-75
2021/01/30 01:16:37;;;;;;;2.00;0.80;;;;;;;8.11;94.99;99043.11;635909;221;24742;-73
2021/01/30 01:19:05;;;;;;;4.43;1.20;;;;;;;8.11;95.63;99050.06;637962;225;24766;-74
2021/01/30 01:21:33;;;;;;;2.00;0.70;;;;;;;8.11;95.87;99052.17;637016;225;24759;-74
2021/01/30 01:24:01;;;;;;;2.87;1.07;;;;;;;8.11;96.16;99057.83;636610;223;24744;-74
2021/01/30 01:26:29;;;;;;;1.87;0.90;;;;;;;8.07;97.18;99058.64;637581;225;24783;-73
2021/01/30 01:28:57;;;;;;;3.17;0.87;;;;;;;8.00;97.99;99057.63;636491;225;24766;-74
2021/01/30 01:31:25;;;;;;;2.03;1.20;;;;;;;7.96;98.76;99050.67;635960;224;24763;-73
2021/01/30 01:33:53;;;;;;;2.70;1.20;;;;;;;8.02;99.40;99055.69;637062;225;24762;-73
2021/01/30 01:36:21;;;;;;;5.43;1.23;;;;;;;8.03;99.41;99062.03;631761;225;32549;-73
2021/01/30 01:38:49;;;;;;;6.90;1.50;;;;;;;7.99;100.00;99063.78;638373;221;25920;-73
2021/01/30 01:41:17;;;;;;;2.23;0.77;;;;;;;8.15;99.40;99065.12;636833;225;24778;-73
2021/01/30 01:43:45;;;;;;;2.57;0.97;;;;;;;8.06;100.00;99056.21;637137;224;24752;-73
2021/01/30 01:46:16;;;;;;;3.43;1.27;;;;;;;7.94;100.00;99056.98;638476;224;25006;-73
2021/01/30 01:48:44;;;;;;;1.77;0.93;;;;;;;7.93;100.00;99052.77;637958;220;24781;-73
2021/01/30 01:51:12;;;;;;;3.23;1.10;;;;;;;7.94;100.00;99044.03;637756;224;24768;-73
2021/01/30 01:53:40;;;;;;;3.70;0.93;;;;;;;7.98;99.49;99034.49;637401;223;24786;-73
2021/01/30 01:56:08;;;;;;;3.57;1.10;;;;;;;8.03;99.93;99032.27;638500;224;24781;-73
2021/01/30 01:58:36;;;;;;;2.13;1.17;;;;;;;8.15;100.00;99043.11;638415;221;24772;-73
2021/01/30 02:01:04;;;;;;;4.20;0.80;;;;;;;8.07;99.64;99038.41;638645;224;24780;-72
2021/01/30 02:03:32;;;;;;;2.03;1.00;;;;;;;7.86;100.00;99027.17;639843;224;24735;-73
2021/01/30 02:06:00;;;;;;;5.07;1.50;;;;;;;7.85;100.00;99018.59;638325;225;24778;-72
2021/01/30 02:08:28;;;;;;;2.23;1.07;;;;;;;7.80;100.00;99023.93;637472;221;24767;-71
2021/01/30 02:10:56;;;;;;;2.37;1.13;;;;;;;7.73;100.00;99025.83;636832;224;24790;-72
2021/01/30 02:13:24;;;;;;;3.20;1.10;;;;;;;7.74;100.00;99026.19;638654;223;24782;-72
2021/01/30 02:15:52;;;;;;;1.07;0.83;;;;;;;7.74;100.00;99019.72;638049;223;24935;-72
2021/01/30 02:18:22;;;;;;;3.83;1.40;;;;;;;7.81;100.00;99013.91;632787;220;32739;-72
2021/01/30 02:21:08;;;;;;;4.17;1.13;;;;;;;7.82;100.00;99007.27;619470;230;32133;-73
2021/01/30 02:24:04;;;;;;;5.12;1.30;;;;;;;7.78;100.00;99009.86;617737;230;33328;-73
2021/01/30 02:27:12;;;;;;;4.37;1.20;;;;;;;7.76;100.00;99001.92;625706;225;23738;-73
2021/01/30 02:29:48;;;;;;;4.53;1.20;;;;;;;7.70;100.00;99001.56;624370;228;24850;-72
2021/01/30 02:32:25;;;;;;;5.87;1.57;;;;;;;7.68;100.00;99000.91;624703;229;24812;-72
2021/01/30 02:35:01;;;;;;;3.47;1.00;;;;;;;7.70;100.00;98990.41;627763;227;24860;-72
2021/01/30 02:37:30;;;;;;;2.50;1.00;;;;;;;7.72;100.00;98990.57;639265;220;24833;-72
2021/01/30 02:39:59;;;;;;;7.87;1.40;;;;;;;7.65;100.00;98979.24;628241;225;24842;-72
2021/01/30 02:42:27;;;;;;;7.80;1.20;;;;;;;7.70;100.00;98985.23;629346;225;28019;-72
2021/01/30 02:44:56;;;;;;;6.60;1.40;;;;;;;7.67;100.00;98977.30;631481;226;24891;-72
2021/01/30 02:47:24;;;;;;;3.97;1.00;;;;;;;7.69;100.00;98977.14;635548;221;25067;-72
2021/01/30 02:49:53;;;;;;;2.67;1.50;;;;;;;7.71;100.00;98979.89;637219;225;24764;-73
2021/01/30 02:52:21;;;;;;;2.80;1.20;;;;;;;7.70;100.00;98970.52;636617;224;24826;-72
2021/01/30 02:54:48;;;;;;;2.87;1.23;;;;;;;7.71;100.00;98965.66;637869;225;24762;-72
2021/01/30 02:57:17;;;;;;;5.63;1.63;;;;;;;7.76;100.00;98957.93;632841;220;32553;-73
2021/01/30 02:59:45;;;;;;;5.40;1.67;;;;;;;7.69;100.00;98963.72;638770;223;25165;-73
2021/01/30 03:02:13;;;;;;;7.30;1.50;;;;;;;7.69;100.00;98965.50;632385;223;43258;-75
2021/01/30 03:04:41;;;;;;;4.30;1.10;;;;;;;7.67;100.00;98973.42;639631;224;23662;-75
2021/01/30 03:07:20;;;;;;;5.27;1.80;;;;;;;7.61;100.00;98971.47;637778;221;24754;-74
2021/01/30 03:09:49;;;;;;;2.97;1.10;;;;;;;7.57;100.00;98974.51;637887;224;24759;-74
2021/01/30 03:12:17;;;;;;;2.23;1.17;;;;;;;7.52;100.00;98976.77;638541;223;24835;-75
2021/01/30 03:14:45;;;;;;;3.47;1.20;;;;;;;7.50;100.00;98974.34;637274;223;24756;-75
2021/01/30 03:17:13;;;;;;;4.20;1.03;;;;;;;7.47;100.00;98977.24;637962;220;24793;-75
2021/01/30 03:19:41;;;;;;;4.33;1.20;;;;;;;7.43;100.00;98976.72;636908;225;24840;-73
2021/01/30 03:22:08;;;;;;;2.03;0.80;;;;;;;7.43;100.00;98981.09;636649;225;24788;-73
2021/01/30 03:24:39;;;;;;;3.13;1.30;;;;;;;7.38;100.00;98970.41;637893;225;24780;-73
2021/01/30 03:27:06;;;;;;;2.40;1.23;;;;;;;7.33;100.00;98981.23;637730;221;24767;-72
2021/01/30 03:29:34;;;;;;;2.43;0.90;;;;;;;7.28;100.00;98978.76;637593;223;24768;-72
2021/01/30 03:32:02;;;;;;;5.77;0.90;;;;;;;7.27;100.00;98970.67;638028;223;24761;-73
2021/01/30 03:34:30;;;;;;;4.50;1.20;;;;;;;7.22;100.00;98974.22;636772;224;24748;-72
2021/01/30 03:36:58;;;;;;;2.00;0.73;;;;;;;7.19;100.00;98980.52;637438;221;24783;-72
2021/01/30 03:39:26;;;;;;;1.13;0.90;;;;;;;7.18;100.00;98975.47;638504;225;24765;-72
2021/01/30 03:41:54;;;;;;;2.13;1.13;;;;;;;7.12;100.00;98975.13;637262;225;24759;-72
2021/01/30 03:44:22;;;;;;;5.87;1.17;;;;;;;7.11;100.00;98973.99;637195;225;24793;-73
2021/01/30 03:46:50;;;;;;;2.07;1.00;;;;;;;7.08;100.00;98966.06;636462;222;26936;-73
2021/01/30 03:49:18;;;;;;;4.27;1.30;;;;;;;7.06;100.00;98965.41;627933;226;24762;-74
2021/01/30 03:51:45;;;;;;;3.47;1.10;;;;;;;7.06;100.00;98962.83;637332;225;24766;-72
2021/01/30 03:54:14;;;;;;;5.43;1.27;;;;;;;7.06;100.00;98958.95;637496;225;24844;-73
2021/01/30 03:56:43;;;;;;;5.80;1.40;;;;;;;7.06;100.00;98969.78;637564;221;24837;-72
2021/01/30 03:59:11;;;;;;;6.20;1.37;;;;;;;7.06;100.00;98960.73;630938;225;32554;-73
2021/01/30 04:01:39;;;;;;;4.03;1.20;;;;;;;7.05;100.00;98957.34;637590;224;24779;-73
2021/01/30 04:04:07;;;;;;;9.67;1.30;;;;;;;7.06;100.00;98950.39;636071;225;24778;-73
2021/01/30 04:06:34;;;;;;;5.90;1.53;;;;;;;7.03;100.00;98946.31;637394;220;24736;-73
2021/01/30 04:09:02;;;;;;;10.10;1.50;;;;;;;7.01;100.00;98944.36;638914;223;24778;-73
2021/01/30 04:11:30;;;;;;;5.73;1.40;;;;;;;7.05;100.00;98938.43;638535;224;24785;-73
2021/01/30 04:13:58;;;;;;;9.97;1.93;;;;;;;7.07;100.00;98940.38;631670;223;32623;-73
2021/01/30 04:16:26;;;;;;;7.90;1.90;;;;;;;7.13;100.00;98931.50;632334;224;32597;-72
2021/01/30 04:18:54;;;;;;;8.33;2.08;;;;;;;7.15;100.00;98936.03;633511;220;32510;-72
2021/01/30 04:21:22;;;;;;;17.67;2.40;;;;;;;7.18;100.00;98940.56;640098;223;23683;-73
2021/01/30 04:23:50;;;;;;;8.37;1.70;;;;;;;7.21;100.00;98935.11;638156;224;24764;-72
2021/01/30 04:26:18;;;;;;;9.37;1.83;;;;;;;7.23;100.00;98933.98;633605;225;24749;-73
2021/01/30 04:28:45;;;;;;;11.57;2.03;;;;;;;7.27;100.00;98933.98;637294;221;24773;-72
2021/01/30 04:31:13;;;;;;;7.20;2.43;;;;;;;7.28;100.00;98936.90;636740;226;24848;-72
2021/01/30 04:33:41;;;;;;;7.37;1.40;;;;;;;7.28;100.00;98931.73;638543;225;24776;-72
2021/01/30 04:36:09;;;;;;;11.20;2.00;;;;;;;7.28;100.00;98933.02;639412;225;24785;-72
2021/01/30 04:38:37;;;;;;;12.50;1.93;;;;;;;7.33;100.00;98939.84;638173;220;24774;-73
2021/01/30 04:41:06;;;;;;;12.30;1.93;;;;;;;7.35;100.00;98933.22;638919;225;24769;-74
2021/01/30 04:43:34;;;;;;;6.80;1.70;;;;;;;7.36;100.00;98930.96;639907;222;24747;-72
2021/01/30 04:46:05;;;;;;;14.90;2.00;;;;;;;7.36;100.00;98933.06;636231;225;24753;-73
2021/01/30 04:48:39;;;;;;;13.43;2.10;;;;;;;7.40;100.00;98933.06;637929;220;24994;-73
2021/01/30 04:51:08;;;;;;;11.18;2.50;;;;;;;7.46;100.00;98934.23;620081;229;43395;-72
2021/01/30 04:53:41;;;;;;;8.47;2.20;;;;;;;7.43;100.00;98932.75;625422;229;23736;-73
2021/01/30 04:56:09;;;;;;;10.33;2.00;;;;;;;7.47;100.00;98915.65;626617;228;24824;-72
2021/01/30 04:58:41;;;;;;;10.10;2.77;;;;;;;7.51;100.00;98923.41;626689;225;24858;-72
2021/01/30 05:01:13;;;;;;;14.50;3.40;;;;;;;7.49;100.00;98931.81;627709;228;28043;-72
2021/01/30 05:03:51;;;;;;;12.40;2.00;;;;;;;7.48;100.00;98921.95;628137;228;25236;-73
2021/01/30 05:06:19;;;;;;;11.10;2.60;;;;;;;7.46;100.00;98922.59;618697;231;25951;-74
2021/01/30 05:08:47;;;;;;;11.33;2.40;;;;;;;7.47;100.00;98928.58;633294;221;24828;-72
2021/01/30 05:11:15;;;;;;;11.93;2.10;;;;;;;7.48;100.00;98918.08;634438;225;24817;-73
2021/01/30 05:13:44;;;;;;;14.23;2.37;;;;;;;7.45;100.00;98915.30;633596;225;24823;-72
2021/01/30 05:16:12;;;;;;;19.63;2.83;;;;;;;7.42;100.00;98922.56;632689;225;24840;-73
2021/01/30 05:18:40;;;;;;;8.40;1.80;;;;;;;7.42;100.00;98905.75;631820;225;24857;-73
2021/01/30 05:21:08;;;;;;;13.20;2.50;;;;;;;7.39;100.00;98915.94;638589;224;24838;-73
2021/01/30 05:23:37;;;;;;;9.50;2.40;;;;;;;7.41;100.00;98907.53;635683;225;24836;-73
2021/01/30 05:26:05;;;;;;;11.73;3.13;;;;;;;7.39;100.00;98909.95;627058;229;24789;-72
2021/01/30 05:28:35;;;;;;;7.33;2.30;;;;;;;7.39;100.00;98907.37;629255;224;24862;-72
2021/01/30 05:31:10;;;;;;;17.73;2.33;;;;;;;7.41;100.00;98902.84;627629;229;24848;-72
2021/01/30 05:33:42;;;;;;;16.10;2.90;;;;;;;7.44;100.00;98894.77;621320;229;32885;-72
2021/01/30 05:36:11;;;;;;;18.07;3.10;;;;;;;7.41;100.00;98883.45;627218;227;23701;-75
2021/01/30 05:38:47;;;;;;;9.27;2.20;;;;;;;7.44;100.00;98883.13;632836;225;24834;-72
2021/01/30 05:41:17;;;;;;;15.93;2.90;;;;;;;7.40;100.00;98881.34;638076;225;25009;-73
2021/01/30 05:43:45;;;;;;;19.30;2.13;;;;;;;7.40;100.00;98879.23;635813;224;24798;-73
2021/01/30 05:46:13;;;;;;;14.37;2.33;;;;;;;7.37;100.00;98878.27;639325;224;27932;-73
2021/01/30 05:48:43;;;;;;;10.53;2.27;;;;;;;7.38;100.00;98878.11;631517;226;24835;-73
2021/01/30 05:51:13;;;;;;;12.83;2.33;;;;;;;7.36;100.00;98876.65;632617;225;24915;-73
2021/01/30 05:53:40;;;;;;;11.20;2.43;;;;;;;7.39;100.00;98877.14;625173;230;26001;-72
2021/01/30 05:56:08;;;;;;;13.87;2.60;;;;;;;7.40;100.00;98868.41;627554;227;24832;-73
2021/01/30 05:58:36;;;;;;;14.37;2.13;;;;;;;7.38;100.00;98864.37;625520;225;24810;-73
2021/01/30 06:01:15;;;;;;;12.23;2.67;;;;;;;7.37;100.00;98860.16;624233;230;24812;-72
2021/01/30 06:03:53;;;;;;;17.00;2.83;;;;;;;7.40;100.00;98863.72;624457;229;24810;-72
2021/01/30 06:06:21;;;;;;;12.20;2.20;;;;;;;7.48;100.00;98862.46;626726;228;24963;-72
2021/01/30 06:08:55;;;;;;;12.30;2.43;;;;;;;7.43;100.00;98850.47;639347;220;24790;-73
2021/01/30 06:11:23;;;;;;;9.70;2.50;;;;;;;7.41;100.00;98857.09;625773;228;24824;-72
2021/01/30 06:13:54;;;;;;;15.63;3.20;;;;;;;7.48;100.00;98848.72;621135;228;32777;-73
2021/01/30 06:16:32;;;;;;;16.62;2.87;;;;;;;7.51;100.00;98849.20;617256;228;32851;-73
2021/01/30 06:19:01;;;;;;;15.15;2.98;;;;;;;7.50;100.00;98851.47;627366;225;32953;-72
2021/01/30 06:21:29;;;;;;;16.63;2.70;;;;;;;7.48;100.00;98844.35;628736;225;23713;-73
2021/01/30 06:24:04;;;;;;;16.53;3.90;;;;;;;7.47;100.00;98845.32;614764;230;24869;-73
2021/01/30 06:26:32;;;;;;;20.10;2.50;;;;;;;7.44;100.00;98845.61;632009;225;24882;-73
2021/01/30 06:29:00;;;;;;;14.17;3.17;;;;;;;7.43;100.00;98838.83;639052;221;24805;-72
2021/01/30 06:31:29;;;;;;;28.60;3.70;;;;;;;7.44;100.00;98832.69;638710;223;24794;-74
2021/01/30 06:33:59;;;;;;;13.93;3.27;;;;;;;7.47;100.00;98831.09;641081;223;24789;-73
2021/01/30 06:36:27;;;;;;;11.67;2.07;;;;;;;7.47;100.00;98831.58;639646;224;24816;-73
2021/01/30 06:38:55;;;;;;;16.40;2.90;;;;;;;7.48;100.00;98831.91;640374;220;24821;-73
2021/01/30 06:41:24;;;;;;;18.00;4.00;;;;;;;7.52;100.00;98834.00;632096;223;24891;-73
2021/01/30 06:43:54;;;;;;;15.05;3.30;;;;;;;7.58;100.00;98824.30;622464;225;33017;-73
2021/01/30 06:46:22;;;;;;;23.10;2.40;;;;;;;7.55;100.00;98832.38;627118;228;23718;-73
2021/01/30 06:48:50;;;;;;;16.60;3.33;;;;;;;7.57;100.00;98832.22;627752;225;24840;-73
2021/01/30 06:51:22;;;;;;;20.03;3.63;;;;;;;7.59;100.00;98831.09;632167;225;24837;-73
2021/01/30 06:53:50;;;;;;;18.03;3.50;;;;;;;7.61;100.00;98833.54;619935;230;24900;-73
2021/01/30 06:56:18;;;;;;;23.27;3.10;;;;;;;7.65;100.00;98826.58;626726;225;32918;-73
2021/01/30 06:58:46;;;;;;;19.47;3.00;;;;;;;7.66;100.00;98821.73;626514;225;24801;-72
2021/01/30 07:01:14;;;;;;;18.03;2.83;;;;;;;7.66;100.00;98823.02;627481;229;24816;-73
2021/01/30 07:03:48;;;;;;;20.73;3.30;;;;;;;7.70;100.00;98811.37;628305;228;24861;-72
2021/01/30 07:06:16;;;;;;;15.27;2.97;;;;;;;7.78;100.00;98813.65;627979;228;25212;-72
2021/01/30 07:08:51;;;;;;;9.80;3.20;;;;;;;7.83;100.00;98815.26;629022;225;25203;-73
2021/01/30 07:11:31;;;;;;;26.80;4.10;;;;;;;7.82;100.00;98819.63;628602;228;24841;-72
2021/01/30 07:14:01;;;;;;;13.20;2.70;;;;;;;8.00;100.00;98815.08;626727;229;28067;-73
2021/01/30 07:16:33;;;;;;;17.83;2.93;;;;;;;7.98;100.00;98811.04;621393;229;24797;-73
2021/01/30 07:19:05;;;;;;;18.67;3.43;;;;;;;8.10;100.00;98812.33;625009;225;24834;-73
2021/01/30 07:21:33;;;;;;;18.23;3.07;;;;;;;8.27;99.35;98807.92;629110;227;32321;-73
2021/01/30 07:24:09;;;;;;;17.60;3.27;;;;;;;8.20;99.10;98805.20;641303;224;24841;-73
2021/01/30 07:26:37;;;;;;;21.13;3.17;;;;;;;8.32;99.27;98801.30;638334;224;24787;-73
2021/01/30 07:29:05;;;;;;;19.47;3.13;;;;;;;8.25;98.96;98798.22;624491;229;24830;-72
2021/01/30 07:31:33;;;;;;;16.17;3.07;;;;;;;8.35;98.68;98800.18;639272;224;24783;-73
2021/01/30 07:34:04;;;;;;;14.40;2.33;;;;;;;8.17;98.61;98799.55;638482;224;25099;-72
2021/01/30 07:36:33;;;;;;;17.80;3.05;;;;;;;8.37;97.57;98796.13;633767;224;32709;-72
2021/01/30 07:39:03;;;;;;;17.73;3.23;;;;;;;8.34;97.60;98795.97;625303;225;23905;-73
2021/01/30 07:41:36;;;;;;;17.33;2.70;;;;;;;8.11;97.69;98791.93;623642;229;24895;-73
2021/01/30 07:44:04;;;;;;;13.20;2.53;;;;;;;8.14;97.55;98792.89;639627;223;23826;-73
2021/01/30 07:46:33;;;;;;;13.67;2.70;;;;;;;8.19;97.15;98788.53;639300;224;24989;-73
2021/01/30 07:49:01;;;;;;;11.20;2.70;;;;;;;8.07;97.08;98784.66;639329;221;24818;-73
2021/01/30 07:51:29;;;;;;;13.40;2.70;;;;;;;8.18;95.97;98783.84;625884;228;24787;-73
2021/01/30 07:53:57;;;;;;;9.13;2.60;;;;;;;8.18;96.19;98782.55;627367;226;28042;-73
2021/01/30 07:56:33;;;;;;;13.07;3.20;;;;;;;8.00;96.88;98772.84;625128;229;24855;-73
2021/01/30 07:59:07;;;;;;;10.20;2.70;;;;;;;8.17;96.23;98764.59;640809;222;24789;-73
2021/01/30 08:01:42;;;;;;;14.87;3.00;;;;;;;8.10;95.89;98760.54;636470;223;32668;-73
2021/01/30 08:04:24;;;;;;;11.67;2.70;;;;;;;8.24;95.89;98760.34;638621;224;27218;-73
2021/01/30 08:06:57;;;;;;;10.17;1.93;;;;;;;8.23;96.16;98766.02;627554;225;25004;-74
2021/01/30 08:09:27;;;;;;;10.72;2.17;;;;;;;8.13;95.83;98753.73;622507;228;32969;-73
2021/01/30 08:11:55;;;;;;;10.20;2.53;;;;;;;8.21;96.05;98759.39;638562;224;23656;-73
2021/01/30 08:14:28;;;;;;;9.03;2.40;;;;;;;8.23;95.59;98755.66;637365;223;24749;-73
2021/01/30 08:16:58;;;;;;;13.90;2.60;;;;;;;8.09;95.91;98750.35;637087;222;25990;-73
2021/01/30 08:19:30;;;;;;;10.23;1.73;;;;;;;8.17;96.27;98745.97;637993;225;25813;-73
2021/01/30 08:21:58;;;;;;;13.00;2.30;;;;;;;8.10;96.24;98748.08;637920;224;24749;-74
2021/01/30 08:24:28;;;;;;;13.37;3.00;;;;;;;7.94;96.84;98748.92;636825;225;24800;-73
2021/01/30 08:26:57;;;;;;;11.20;2.57;;;;;;;8.01;96.71;98749.87;637247;221;24741;-75
2021/01/30 08:29:26;;;;;;;13.43;2.33;;;;;;;8.14;97.47;98746.77;638317;225;24774;-74
2021/01/30 08:31:55;;;;;;;12.07;3.20;;;;;;;8.15;97.35;98749.19;638689;225;24755;-74
2021/01/30 08:34:29;;;;;;;11.83;2.50;;;;;;;8.27;96.25;98743.98;632633;225;24753;-72
2021/01/30 08:36:57;;;;;;;20.07;2.87;;;;;;;8.35;95.21;98732.83;636629;221;24754;-73
2021/01/30 08:39:26;;;;;;;14.70;2.83;;;;;;;8.35;95.17;98735.42;636982;223;26931;-73
2021/01/30 08:41:55;;;;;;;13.03;2.47;;;;;;;8.46;95.28;98742.03;636758;225;26885;-73
2021/01/30 08:44:31;;;;;;;9.60;2.47;;;;;;;8.40;96.62;98741.39;638007;223;25064;-73
2021/01/30 08:47:05;;;;;;;8.70;2.70;;;;;;;8.31;96.37;98740.59;636454;221;24755;-74
2021/01/30 08:49:34;;;;;;;8.03;2.30;;;;;;;8.45;95.98;98736.53;637543;223;24749;-73
2021/01/30 08:52:23;;;;;;;15.00;3.12;;;;;;;8.79;94.83;98731.82;632856;223;32643;-73
2021/01/30 08:54:51;;;;;;;16.87;3.93;;;;;;;8.40;95.66;98734.91;638918;223;23662;-72
2021/01/30 08:57:30;;;;;;;9.03;2.47;;;;;;;8.35;95.86;98730.73;639729;220;24783;-74
2021/01/30 08:59:58;;;;;;;16.80;3.80;;;;;;;8.24;96.91;98736.55;638236;224;24767;-72
2021/01/30 09:02:48;;;;;;;12.10;2.97;;;;;;;8.43;96.56;98739.75;638684;223;24779;-70
2021/01/30 09:05:37;;;;;;;16.53;3.10;;;;;;;8.56;96.31;98736.13;638997;224;24745;-72
2021/01/30 09:08:34;;;;;;;9.10;3.30;;;;;;;8.51;96.62;98735.36;639242;221;24824;-74
2021/01/30 09:11:20;;;;;;;12.97;2.43;;;;;;;8.40;97.10;98739.60;635826;224;24832;-73
2021/01/30 09:14:01;;;;;;;11.00;2.60;;;;;;;8.47;96.57;98740.56;637596;223;24741;-73
2021/01/30 09:16:31;;;;;;;14.97;3.33;;;;;;;8.41;96.39;98740.41;638244;225;24724;-73
2021/01/30 09:18:59;;;;;;;10.33;2.73;;;;;;;8.48;96.58;98741.37;639248;220;26911;-73
2021/01/30 09:21:39;;;;;;;14.23;2.20;;;;;;;8.38;96.69;98739.45;641750;224;24772;-73
2021/01/30 09:24:19;;;;;;;7.77;2.40;;;;;;;8.62;95.91;98738.88;641393;224;24783;-74
2021/01/30 09:26:50;;;;;;;14.47;3.50;;;;;;;8.90;95.24;98733.23;624836;225;24784;-73
2021/01/30 09:29:19;;;;;;;15.63;3.47;;;;;;;8.84;94.45;98728.22;640802;224;24801;-74
2021/01/30 09:31:47;;;;;;;10.60;2.80;;;;;;;8.80;94.92;98732.14;629279;226;24816;-73
2021/01/30 09:34:16;;;;;;;13.80;2.87;;;;;;;8.79;95.52;98733.61;625354;229;24791;-74
2021/01/30 09:36:44;;;;;;;14.30;2.63;;;;;;;8.34;97.01;98738.98;639290;221;24841;-73
2021/01/30 09:39:21;;;;;;;12.50;2.97;;;;;;;8.69;96.52;98740.28;638547;225;24775;-74
2021/01/30 09:41:49;;;;;;;16.97;3.90;;;;;;;8.84;96.13;98730.81;631927;224;32525;-73
2021/01/30 09:44:20;;;;;;;14.97;3.00;;;;;;;9.04;94.96;98726.50;631344;224;32569;-74
2021/01/30 09:46:49;;;;;;;12.15;2.77;;;;;;;9.19;93.35;98710.51;631676;221;32580;-74
2021/01/30 09:49:18;;;;;;;15.77;2.57;;;;;;;9.24;94.28;98718.56;637268;225;23622;-73
2021/01/30 09:51:46;;;;;;;9.20;2.60;;;;;;;8.96;94.15;98718.76;637542;225;24746;-73
2021/01/30 09:54:15;;;;;;;11.40;3.30;;;;;;;9.23;94.93;98723.44;636938;223;24749;-74
2021/01/30 09:56:43;;;;;;;14.97;3.07;;;;;;;9.24;94.27;98717.27;637400;220;24721;-75
2021/01/30 09:59:12;;;;;;;17.73;2.50;;;;;;;9.19;94.60;98724.77;637988;225;24737;-73
2021/01/30 10:01:40;;;;;;;7.37;2.10;;;;;;;9.24;94.74;98719.86;637893;225;24770;-73
2021/01/30 10:04:14;;;;;;;10.77;2.80;;;;;;;8.90;94.84;98724.95;637189;225;24777;-73
2021/01/30 10:06:42;;;;;;;9.00;2.33;;;;;;;9.15;95.62;98724.81;638327;224;24815;-73
2021/01/30 10:09:12;;;;;;;10.40;2.20;;;;;;;9.15;95.22;98722.22;639928;224;24739;-73
2021/01/30 10:11:40;;;;;;;11.77;3.17;;;;;;;8.95;95.89;98724.44;639707;224;24729;-72
2021/01/30 10:14:07;;;;;;;12.13;2.60;;;;;;;8.51;97.94;98729.36;637755;224;24738;-73
2021/01/30 10:16:35;;;;;;;17.00;3.87;;;;;;;8.51;98.21;98730.66;637428;222;24745;-73
2021/01/30 10:19:08;;;;;;;20.33;7.20;;;;;;;8.45;99.80;98732.16;638290;221;24739;-75
2021/01/30 10:21:36;;;;;;;10.50;2.70;;;;;;;8.62;98.19;98726.41;637661;222;24759;-74
2021/01/30 10:24:13;;;;;;;7.53;1.77;;;;;;;8.49;98.61;98722.25;638544;224;24751;-72
2021/01/30 10:26:41;;;;;;;10.10;2.90;;;;;;;8.33;99.12;98723.91;637997;224;24853;-73
2021/01/30 10:29:10;;;;;;;13.07;1.40;;;;;;;8.28;99.30;98717.11;638909;223;24739;-72
2021/01/30 10:31:38;;;;;;;6.50;1.60;;;;;;;8.43;98.94;98720.31;637255;225;24745;-73
2021/01/30 10:34:06;;;;;;;5.60;1.83;;;;;;;8.33;99.59;98712.25;638500;223;24720;-72
2021/01/30 10:36:34;;;;;;;5.33;1.30;;;;;;;8.42;99.82;98710.94;636446;225;24948;-71
2021/01/30 10:39:02;;;;;;;6.83;1.40;;;;;;;8.69;98.45;98707.89;631121;221;32818;-72
2021/01/30 10:41:31;;;;;;;8.17;1.83;;;;;;;8.47;99.17;98706.88;637138;224;23633;-72
2021/01/30 10:44:00;;;;;;;3.33;1.50;;;;;;;8.34;99.75;98698.84;638476;225;24729;-72
2021/01/30 10:46:31;;;;;;;2.67;1.53;;;;;;;8.65;99.96;98711.80;639329;222;24735;-75
2021/01/30 10:49:04;;;;;;;3.43;1.10;;;;;;;8.95;99.76;98706.28;638304;220;24752;-73
2021/01/30 10:51:34;;;;;;;6.63;1.33;;;;;;;9.08;98.94;98699.23;638600;222;24755;-73
2021/01/30 10:54:09;;;;;;;3.30;1.63;;;;;;;9.18;98.29;98695.44;638412;225;24739;-73
2021/01/30 10:56:37;;;;;;;4.33;1.83;;;;;;;9.23;99.04;98698.80;637062;225;24731;-74
2021/01/30 10:59:20;;;;;;;8.27;2.13;;;;;;;9.27;98.37;98692.27;637566;221;24742;-74
2021/01/30 11:01:48;;;;;;;4.83;1.70;;;;;;;9.35;98.24;98690.12;636590;224;25085;-73
2021/01/30 11:04:24;;;;;;;5.70;1.73;;;;;;;9.21;97.91;98687.80;638256;224;23766;-73
2021/01/30 11:06:52;;;;;;;5.53;1.90;;;;;;;9.29;99.01;98691.63;636624;222;24733;-73
2021/01/30 11:09:22;;;;;;;12.50;2.73;;;;;;;9.25;98.28;98681.27;631801;225;24739;-73
2021/01/30 11:11:50;;;;;;;11.17;2.70;;;;;;;9.35;98.50;98681.03;637667;225;24734;-73
2021/01/30 11:14:19;;;;;;;12.13;2.70;;;;;;;9.07;99.94;98685.47;638223;225;24741;-72
2021/01/30 11:16:47;;;;;;;11.57;2.53;;;;;;;9.38;100.00;98675.00;625251;226;24771;-72
2021/01/30 11:19:20;;;;;;;13.93;2.67;;;;;;;9.42;99.93;98668.95;628273;227;24776;-73
2021/01/30 11:21:47;;;;;;;7.00;2.20;;;;;;;9.56;99.20;98660.89;627385;228;24779;-72
2021/01/30 11:24:19;;;;;;;12.77;2.37;;;;;;;9.23;99.83;98663.28;627427;227;24760;-73
2021/01/30 11:26:47;;;;;;;10.53;2.67;;;;;;;9.29;100.00;98660.50;625940;225;25184;-72
2021/01/30 11:29:25;;;;;;;6.70;2.30;;;;;;;9.02;100.00;98655.86;626469;229;24766;-73
2021/01/30 11:31:53;;;;;;;12.50;2.90;;;;;;;9.37;100.00;98646.14;626420;227;24759;-73
2021/01/30 11:34:22;;;;;;;10.80;2.47;;;;;;;9.34;100.00;98642.61;639601;223;24819;-73
2021/01/30 11:36:50;;;;;;;13.47;3.40;;;;;;;9.92;98.38;98622.06;634060;221;32636;-73
2021/01/30 11:39:23;;;;;;;11.30;2.87;;;;;;;9.86;98.17;98621.50;639398;224;24773;-73
2021/01/30 11:41:51;;;;;;;10.37;2.50;;;;;;;9.98;97.72;98610.94;640714;224;25037;-73
2021/01/30 11:44:19;;;;;;;8.10;2.93;;;;;;;10.08;97.92;98605.78;625484;229;27002;-73
2021/01/30 11:46:48;;;;;;;9.30;2.50;;;;;;;10.04;97.48;98599.84;626872;226;24830;-73